Florence Regional Airport Florence US
ICAO: KFLO
IATA: FLO
Category: Medium
Scheduled Services: Yes

Elevation: 146 ft
TransAlt. 18000 ft.

Airport Communications:
APP DEP:118.6
ATIS:123.625
CTAF:125.1
GND/CLNC DEL:121.9
ANDERSON RDO:122.6
TWR:125.1
UNICOM:122.95

KFLO Zoom In..

Runways:

(A) RW 01 length 6000 ft width 150 ft
---- / hdg 6

(B) RW 09 length 6502 ft width 150 ft
ILS 109.10 / hdg 89

(C) RW 19 length 6000 ft width 150 ft
---- / hdg 186

(D) RW 27 length 6502 ft width 150 ft
---- / hdg 269

Location; KFLO
Day. 23 / Time. 10.00 Zulu
* Altimeter: 29.78
* Temperature: 23° c. 73.4°f.
* Wind from: 150° Speed 04 kn.
Dewpoint: 21° c.
Visibility: 10 Statute Miles.
Clouds: Scattered 1200 ft.
Clouds: Scattered 2200 ft.

KFLO 231000Z AUTO 15004KT 10SM SCT012 SCT022 23/21 A2978 RMK AO2 T02330211


Wind From 150°
Speed 04 kn.

 
 
jpsmedia.com for Web Design worldairports.se 2018   terms of use